Time;durP1;ratioP1;P1;durP2;ratioP2;P2;SDS_P1;SDS_P2;PMS_P1;PMS_P2;Temp;Humidity;BMP_temperature;BMP_pressure;BME280_temperature;BME280_humidity;BME280_pressure;Samples;Min_cycle;Max_cycle;Signal;HPM_P1;HPM_P2
2022/04/06 00:01:47;;;;;;;28.15;11.23;;;8.10;99.90;;;;;;5109671;27;20035;-86
2022/04/06 00:04:13;;;;;;;22.33;11.27;;;8.10;99.90;;;;;;5123834;27;20046;-86
2022/04/06 00:06:38;;;;;;;33.67;14.20;;;8.10;99.90;;;;;;5104998;27;20493;-87
2022/04/06 00:09:04;;;;;;;31.67;13.52;;;8.20;99.90;;;;;;5124394;27;20039;-86
2022/04/06 00:11:30;;;;;;;32.72;14.35;;;8.10;99.90;;;;;;5105869;27;20042;-86
2022/04/06 00:13:56;;;;;;;31.88;13.65;;;8.20;99.90;;;;;;5104349;27;20519;-87
2022/04/06 00:16:22;;;;;;;34.80;14.15;;;8.10;99.90;;;;;;5112724;27;20066;-88
2022/04/06 00:18:47;;;;;;;31.98;14.57;;;8.20;99.90;;;;;;5132600;27;20432;-87
2022/04/06 00:21:13;;;;;;;36.22;13.60;;;8.10;99.90;;;;;;5112400;27;20036;-86
2022/04/06 00:23:39;;;;;;;29.55;13.15;;;8.10;99.90;;;;;;5108080;27;20027;-87
2022/04/06 00:26:04;;;;;;;26.83;12.10;;;8.10;99.90;;;;;;5129745;27;20041;-85
2022/04/06 00:28:30;;;;;;;35.00;14.30;;;8.20;99.90;;;;;;5132368;27;20043;-87
2022/04/06 00:30:56;;;;;;;31.25;14.65;;;8.20;99.90;;;;;;5124426;27;20039;-87
2022/04/06 00:33:22;;;;;;;33.58;13.18;;;8.20;99.90;;;;;;5100342;27;20047;-87
2022/04/06 00:35:48;;;;;;;29.33;13.85;;;8.20;99.90;;;;;;5107361;27;20380;-87
2022/04/06 00:38:14;;;;;;;31.70;14.02;;;8.20;99.90;;;;;;5106140;28;20023;-87
2022/04/06 00:40:40;;;;;;;33.33;14.00;;;8.20;99.90;;;;;;5104287;27;20027;-88
2022/04/06 00:43:10;;;;;;;37.63;14.00;;;8.20;99.90;;;;;;5113522;27;20037;-87
2022/04/06 00:45:38;;;;;;;31.17;13.43;;;8.20;99.90;;;;;;5103810;27;20543;-88
2022/04/06 00:48:04;;;;;;;32.70;13.52;;;8.30;99.90;;;;;;5115961;27;20426;-87
2022/04/06 00:50:31;;;;;;;27.95;13.27;;;8.30;99.90;;;;;;5106885;27;20039;-87
2022/04/06 00:52:57;;;;;;;37.85;13.02;;;8.30;99.90;;;;;;5127419;27;20034;-87
2022/04/06 00:55:32;;;;;;;30.38;13.27;;;8.30;99.90;;;;;;5108283;27;20071;-87
2022/04/06 00:57:58;;;;;;;27.75;13.55;;;8.30;99.90;;;;;;5126830;27;20520;-87
2022/04/06 01:00:25;;;;;;;32.15;13.32;;;8.20;99.90;;;;;;5133605;27;20060;-87
2022/04/06 01:02:51;;;;;;;35.67;13.77;;;8.20;99.90;;;;;;5119034;27;20062;-87
2022/04/06 01:05:17;;;;;;;33.92;13.60;;;8.30;99.90;;;;;;5129208;27;20076;-87
2022/04/06 01:07:50;;;;;;;30.20;13.45;;;8.30;99.90;;;;;;5118769;27;20155;-87
2022/04/06 01:10:16;;;;;;;28.63;13.13;;;8.20;99.90;;;;;;5111530;27;20038;-87
2022/04/06 01:12:45;;;;;;;29.52;12.68;;;8.30;99.90;;;;;;5105771;27;20156;-87
2022/04/06 01:15:10;;;;;;;34.03;13.30;;;8.30;99.90;;;;;;5114474;27;20083;-87
2022/04/06 01:17:36;;;;;;;31.35;12.10;;;8.30;99.90;;;;;;5128754;27;20031;-87
2022/04/06 01:20:07;;;;;;;26.45;12.05;;;8.30;99.90;;;;;;5134198;27;20038;-88
2022/04/06 01:22:34;;;;;;;31.05;12.57;;;8.30;99.90;;;;;;5115018;27;20543;-88
2022/04/06 01:25:01;;;;;;;30.90;12.98;;;8.30;99.90;;;;;;5116773;27;20122;-87
2022/04/06 01:27:27;;;;;;;25.85;12.10;;;8.30;99.90;;;;;;5131909;27;20041;-88
2022/04/06 01:29:54;;;;;;;25.88;11.48;;;8.30;99.90;;;;;;5124198;27;20039;-88
2022/04/06 01:32:25;;;;;;;21.55;10.65;;;8.30;99.90;;;;;;5113158;27;20599;-87
2022/04/06 01:34:56;;;;;;;30.35;12.50;;;8.30;99.90;;;;;;5127702;27;20066;-87
2022/04/06 01:37:22;;;;;;;27.10;10.70;;;8.30;99.90;;;;;;5113807;27;20500;-87
2022/04/06 01:39:49;;;;;;;26.02;11.25;;;8.30;99.90;;;;;;5113938;27;20119;-86
2022/04/06 01:42:17;;;;;;;30.73;11.35;;;8.30;99.90;;;;;;5114322;27;20054;-86
2022/04/06 01:44:45;;;;;;;29.42;11.82;;;8.30;99.90;;;;;;5113045;27;20064;-87
2022/04/06 01:47:12;;;;;;;23.83;9.60;;;8.30;99.90;;;;;;5102933;27;20031;-88
2022/04/06 01:52:22;;;;;;;28.15;10.05;;;8.40;99.90;;;;;;5126896;27;20080;-87
2022/04/06 01:54:57;;;;;;;25.48;10.07;;;8.40;99.90;;;;;;5128289;27;20447;-88
2022/04/06 01:57:23;;;;;;;24.00;10.35;;;8.40;99.90;;;;;;5131366;27;20035;-87
2022/04/06 01:59:49;;;;;;;24.83;10.30;;;8.40;99.90;;;;;;5108784;27;20059;-87
2022/04/06 02:02:17;;;;;;;23.95;10.18;;;8.40;99.90;;;;;;5123592;27;20035;-88
2022/04/06 02:04:44;;;;;;;22.30;9.90;;;8.40;99.90;;;;;;5103665;27;20035;-87
2022/04/06 02:07:11;;;;;;;22.15;9.15;;;8.40;99.90;;;;;;5130947;27;20083;-88
2022/04/06 02:09:37;;;;;;;20.48;9.20;;;8.40;99.90;;;;;;5111247;27;20039;-88
2022/04/06 02:12:03;;;;;;;24.40;9.43;;;8.50;99.90;;;;;;5124692;27;20026;-87
2022/04/06 02:14:29;;;;;;;19.02;8.48;;;8.50;99.90;;;;;;5122503;27;20034;-88
2022/04/06 02:16:54;;;;;;;18.52;8.18;;;8.50;99.90;;;;;;5104045;27;20126;-87
2022/04/06 02:19:21;;;;;;;22.20;8.38;;;8.50;99.90;;;;;;5105096;27;20027;-87
2022/04/06 02:21:46;;;;;;;21.45;8.10;;;8.50;99.90;;;;;;5116477;27;20065;-87
2022/04/06 02:24:12;;;;;;;23.90;8.30;;;8.50;99.90;;;;;;5107391;27;20033;-88
2022/04/06 02:26:37;;;;;;;20.05;8.18;;;8.50;99.90;;;;;;5105025;27;20071;-88
2022/04/06 02:29:03;;;;;;;19.00;7.10;;;8.50;99.90;;;;;;5104619;27;20060;-89
2022/04/06 02:31:29;;;;;;;19.30;6.50;;;8.50;99.90;;;;;;5117064;27;20061;-87
2022/04/06 02:33:54;;;;;;;15.10;5.97;;;8.50;99.90;;;;;;5109416;27;20102;-87
2022/04/06 02:36:20;;;;;;;16.90;6.07;;;8.50;99.90;;;;;;5108013;27;20030;-88
2022/04/06 02:38:47;;;;;;;15.05;5.82;;;8.50;99.90;;;;;;5106192;27;20042;-88
2022/04/06 02:41:12;;;;;;;14.35;5.93;;;8.00;99.90;;;;;;5129434;27;20042;-88
2022/04/06 02:43:38;;;;;;;14.63;5.45;;;8.50;99.90;;;;;;5111117;27;20027;-88
2022/04/06 02:46:04;;;;;;;13.50;5.32;;;8.50;99.90;;;;;;5112261;27;20039;-88
2022/04/06 02:48:29;;;;;;;14.05;4.65;;;9.00;99.90;;;;;;5104175;27;20043;-87
2022/04/06 02:50:55;;;;;;;15.27;4.75;;;8.50;99.90;;;;;;5116677;27;20038;-88
2022/04/06 02:53:22;;;;;;;12.02;4.47;;;8.50;99.90;;;;;;5114632;27;20399;-87
2022/04/06 02:55:48;;;;;;;13.75;4.90;;;8.50;99.90;;;;;;5105413;27;20118;-89
2022/04/06 02:58:13;;;;;;;10.50;4.30;;;8.50;99.90;;;;;;5110202;27;20050;-88
2022/04/06 03:00:39;;;;;;;10.88;4.35;;;8.50;99.90;;;;;;5122315;27;20039;-87
2022/04/06 03:03:05;;;;;;;11.30;3.85;;;8.50;99.90;;;;;;5110891;27;20035;-87
2022/04/06 03:05:30;;;;;;;7.68;3.60;;;8.60;99.90;;;;;;5107208;27;20049;-87
2022/04/06 03:07:56;;;;;;;13.43;4.00;;;8.50;99.90;;;;;;5115785;27;20093;-87
2022/04/06 03:10:21;;;;;;;12.60;3.92;;;8.90;99.90;;;;;;5111102;27;20083;-86
2022/04/06 03:12:47;;;;;;;12.02;4.55;;;8.50;99.90;;;;;;5116286;27;20038;-87
2022/04/06 03:15:14;;;;;;;12.70;4.25;;;8.50;99.90;;;;;;5133016;27;20039;-87
2022/04/06 03:17:41;;;;;;;12.10;3.25;;;8.50;99.90;;;;;;5109454;27;20398;-87
2022/04/06 03:20:08;;;;;;;10.88;4.55;;;9.00;99.90;;;;;;5105638;27;20035;-88
2022/04/06 03:22:34;;;;;;;9.90;3.88;;;8.40;99.90;;;;;;5099897;27;20031;-86
2022/04/06 03:25:00;;;;;;;10.98;4.05;;;8.40;99.90;;;;;;5101206;27;20515;-88
2022/04/06 03:27:26;;;;;;;8.98;3.70;;;8.40;99.90;;;;;;5104042;27;20199;-87
2022/04/06 03:29:51;;;;;;;11.90;4.03;;;8.30;99.90;;;;;;5108897;27;20507;-87
2022/04/06 03:32:17;;;;;;;10.43;4.15;;;8.30;99.90;;;;;;5110628;27;20507;-87
2022/04/06 03:34:42;;;;;;;11.40;3.90;;;8.30;99.90;;;;;;5114542;27;20034;-88
2022/04/06 03:37:08;;;;;;;15.45;4.30;;;8.30;99.90;;;;;;5115683;27;20088;-87
2022/04/06 03:39:34;;;;;;;11.38;4.47;;;8.30;99.90;;;;;;5114012;27;20080;-87
2022/04/06 03:42:00;;;;;;;12.75;4.30;;;8.40;99.90;;;;;;5124932;27;20741;-88
2022/04/06 03:44:25;;;;;;;14.20;4.53;;;8.40;99.90;;;;;;5111124;27;20532;-88
2022/04/06 03:46:52;;;;;;;10.35;4.43;;;8.30;99.90;;;;;;5128059;27;20038;-88
2022/04/06 03:49:18;;;;;;;12.80;4.57;;;8.30;99.90;;;;;;5111343;27;20072;-87
2022/04/06 03:51:43;;;;;;;15.35;5.10;;;8.40;99.90;;;;;;5110230;27;20496;-88
2022/04/06 03:54:09;;;;;;;17.55;4.88;;;8.30;99.90;;;;;;5099733;27;20050;-88
2022/04/06 03:56:35;;;;;;;14.00;5.05;;;8.30;99.90;;;;;;5126023;27;20043;-86
2022/04/06 03:59:00;;;;;;;16.95;6.03;;;8.30;99.90;;;;;;5111440;27;20087;-87
2022/04/06 04:01:28;;;;;;;17.08;6.30;;;8.30;99.90;;;;;;5105462;27;20039;-87
2022/04/06 04:03:53;;;;;;;14.88;6.22;;;8.30;99.90;;;;;;5128975;27;20038;-88
2022/04/06 04:06:19;;;;;;;18.50;6.47;;;8.30;99.90;;;;;;5113265;27;20038;-88
2022/04/06 04:08:45;;;;;;;22.42;6.72;;;8.30;99.90;;;;;;5118181;27;20121;-88
2022/04/06 04:11:10;;;;;;;17.23;7.13;;;8.30;99.90;;;;;;5110391;27;20038;-88
2022/04/06 04:13:36;;;;;;;19.38;6.95;;;8.20;99.90;;;;;;5100243;27;20043;-88
2022/04/06 04:16:01;;;;;;;18.63;7.50;;;8.20;99.90;;;;;;5102709;27;20118;-87
2022/04/06 04:18:27;;;;;;;20.38;7.78;;;8.20;99.90;;;;;;5107859;27;20023;-87
2022/04/06 04:21:31;;;;;;;18.60;8.07;;;8.20;99.90;;;;;;5129998;27;20043;-87
2022/04/06 04:23:38;;;;;;;21.27;8.43;;;8.20;99.90;;;;;;5117369;27;20039;-87
2022/04/06 04:26:04;;;;;;;17.40;7.88;;;8.20;99.90;;;;;;5131487;27;20038;-87
2022/04/06 04:28:29;;;;;;;20.75;8.50;;;8.20;99.90;;;;;;5126491;27;20081;-87
2022/04/06 04:30:55;;;;;;;21.38;8.10;;;8.20;99.90;;;;;;5109938;27;20057;-87
2022/04/06 04:33:20;;;;;;;26.70;9.43;;;8.60;99.90;;;;;;5110740;27;20059;-87
2022/04/06 04:35:47;;;;;;;20.45;8.95;;;8.20;99.90;;;;;;5113367;27;20106;-87
2022/04/06 04:38:13;;;;;;;28.00;9.38;;;8.20;99.90;;;;;;5137261;27;20049;-86
2022/04/06 04:40:38;;;;;;;18.95;9.45;;;8.20;99.90;;;;;;5107721;27;20039;-86
2022/04/06 04:43:04;;;;;;;21.23;9.05;;;8.20;99.90;;;;;;5109662;27;20027;-88
2022/04/06 04:45:30;;;;;;;25.02;9.90;;;8.20;99.90;;;;;;5106593;27;20046;-87
2022/04/06 04:47:57;;;;;;;20.25;8.82;;;8.20;99.90;;;;;;5110627;27;20031;-88
2022/04/06 04:50:22;;;;;;;16.83;8.57;;;8.90;99.90;;;;;;5105260;27;20046;-86
2022/04/06 04:52:48;;;;;;;23.58;8.32;;;8.20;99.90;;;;;;5101164;27;20517;-87
2022/04/06 04:55:14;;;;;;;20.02;8.30;;;8.20;99.90;;;;;;5126459;27;20536;-87
2022/04/06 04:57:40;;;;;;;20.30;8.95;;;8.20;99.90;;;;;;5119158;27;20117;-86
2022/04/06 05:00:08;;;;;;;20.80;8.63;;;8.20;99.90;;;;;;5103953;27;20108;-87
2022/04/06 05:02:34;;;;;;;22.13;8.65;;;8.20;99.90;;;;;;5108096;27;20123;-88
2022/04/06 05:04:59;;;;;;;21.05;8.13;;;8.20;99.90;;;;;;5131983;27;20125;-88
2022/04/06 05:07:25;;;;;;;22.63;8.00;;;8.20;99.90;;;;;;5118715;27;20411;-86
2022/04/06 05:09:50;;;;;;;21.23;7.70;;;8.20;99.90;;;;;;5124546;27;20040;-87
2022/04/06 05:12:17;;;;;;;19.27;8.30;;;8.10;99.90;;;;;;5116530;27;20057;-87
2022/04/06 05:14:43;;;;;;;20.77;7.60;;;8.10;99.90;;;;;;5119817;27;20039;-88
2022/04/06 05:17:08;;;;;;;22.83;7.65;;;8.20;99.90;;;;;;5120952;27;20039;-88
2022/04/06 05:19:34;;;;;;;17.80;7.07;;;8.20;99.90;;;;;;5119188;27;20488;-87
2022/04/06 05:21:59;;;;;;;22.10;7.50;;;8.40;99.90;;;;;;5121242;27;20453;-87
2022/04/06 05:24:26;;;;;;;22.65;7.90;;;8.10;99.90;;;;;;5114681;27;20122;-88
2022/04/06 05:26:51;;;;;;;20.48;7.63;;;8.10;99.90;;;;;;5112036;27;20038;-87
2022/04/06 05:29:18;;;;;;;19.23;6.80;;;8.10;99.90;;;;;;5124121;27;20516;-87
2022/04/06 05:31:44;;;;;;;22.52;7.80;;;8.10;99.90;;;;;;5099702;27;20481;-88
2022/04/06 05:34:09;;;;;;;23.88;8.02;;;8.00;99.90;;;;;;5115975;27;20086;-88
2022/04/06 05:36:35;;;;;;;18.42;7.15;;;8.00;99.90;;;;;;5106969;27;20095;-88
2022/04/06 05:39:00;;;;;;;22.75;7.32;;;8.00;99.90;;;;;;5107261;27;20492;-87
2022/04/06 05:41:27;;;;;;;21.77;7.57;;;8.50;99.90;;;;;;5106646;27;20045;-87
2022/04/06 05:43:53;;;;;;;22.00;7.57;;;8.00;99.90;;;;;;5109028;27;20043;-89
2022/04/06 05:46:18;;;;;;;22.50;7.75;;;8.30;99.90;;;;;;5109416;27;20030;-87
2022/04/06 05:48:44;;;;;;;19.90;7.72;;;8.00;99.90;;;;;;5108657;27;20092;-87
2022/04/06 05:51:10;;;;;;;21.67;7.32;;;7.90;99.90;;;;;;5125194;27;20037;-87
2022/04/06 05:53:35;;;;;;;18.90;6.72;;;7.40;99.90;;;;;;5109459;27;20425;-87
2022/04/06 05:56:01;;;;;;;19.95;6.57;;;7.90;99.90;;;;;;5107296;27;20122;-87
2022/04/06 05:58:26;;;;;;;19.67;6.53;;;7.90;99.90;;;;;;5131270;27;20098;-87
2022/04/06 06:00:52;;;;;;;16.48;6.25;;;7.90;99.90;;;;;;5121162;27;20071;-87
2022/04/06 06:03:17;;;;;;;16.42;6.10;;;7.90;99.90;;;;;;5124582;27;20073;-87
2022/04/06 06:05:43;;;;;;;20.35;5.63;;;7.90;99.90;;;;;;5104754;27;20197;-87
2022/04/06 06:08:09;;;;;;;15.63;6.28;;;8.40;99.90;;;;;;5099430;27;20096;-88
2022/04/06 06:10:35;;;;;;;18.15;6.72;;;8.00;99.90;;;;;;5099622;27;20547;-87
2022/04/06 06:13:00;;;;;;;18.33;6.28;;;7.80;99.90;;;;;;5105328;27;20110;-87
2022/04/06 06:15:26;;;;;;;17.15;7.13;;;7.80;99.90;;;;;;5123077;27;20564;-87
2022/04/06 06:17:53;;;;;;;15.02;6.47;;;7.80;99.90;;;;;;5120670;27;20513;-87
2022/04/06 06:20:19;;;;;;;15.50;6.28;;;7.80;99.90;;;;;;5122479;27;20035;-87
2022/04/06 06:22:44;;;;;;;13.93;6.05;;;7.80;99.90;;;;;;5119037;27;20044;-87
2022/04/06 06:25:10;;;;;;;17.75;6.60;;;7.80;99.90;;;;;;5119416;27;20038;-87
2022/04/06 06:27:40;;;;;;;17.33;7.15;;;7.80;99.90;;;;;;5113399;27;20432;-88
2022/04/06 06:30:07;;;;;;;14.10;6.05;;;7.80;99.90;;;;;;5109361;27;20041;-88
2022/04/06 06:32:33;;;;;;;19.80;7.20;;;7.90;99.90;;;;;;5129918;27;20059;-86
2022/04/06 06:34:58;;;;;;;17.77;8.50;;;7.80;99.90;;;;;;5109233;27;20042;-86
2022/04/06 06:37:24;;;;;;;12.13;5.35;;;7.80;99.90;;;;;;5112405;27;20475;-87
2022/04/06 06:39:52;;;;;;;15.82;6.05;;;7.80;99.90;;;;;;5108396;27;20126;-88
2022/04/06 06:42:18;;;;;;;15.70;6.43;;;7.80;99.90;;;;;;5115390;27;20388;-87
2022/04/06 06:44:43;;;;;;;13.40;5.95;;;7.80;99.90;;;;;;5112984;27;20035;-89
2022/04/06 06:47:10;;;;;;;12.55;6.20;;;7.80;99.90;;;;;;5112968;27;20058;-87
2022/04/06 06:49:35;;;;;;;16.05;6.00;;;7.80;99.90;;;;;;5109700;27;20045;-89
2022/04/06 06:52:01;;;;;;;11.75;5.05;;;7.80;99.90;;;;;;5130866;27;20039;-87
2022/04/06 06:54:27;;;;;;;12.80;5.63;;;7.80;99.90;;;;;;5116291;27;20083;-87
2022/04/06 06:56:52;;;;;;;11.98;4.40;;;7.80;99.90;;;;;;5114732;27;20042;-87
2022/04/06 06:59:18;;;;;;;17.80;3.92;;;7.80;99.90;;;;;;5129144;27;20109;-86
2022/04/06 07:01:43;;;;;;;10.68;4.00;;;7.90;99.90;;;;;;5133823;27;20069;-87
2022/04/06 07:04:09;;;;;;;15.65;4.28;;;7.90;99.90;;;;;;5126611;27;20031;-89
2022/04/06 07:06:34;;;;;;;16.80;3.80;;;7.90;99.90;;;;;;5118061;27;20525;-88
2022/04/06 07:09:00;;;;;;;12.98;3.75;;;7.90;99.90;;;;;;5114086;27;20046;-87
2022/04/06 07:11:25;;;;;;;9.15;3.92;;;7.90;99.90;;;;;;5129397;27;20042;-88
2022/04/06 07:13:51;;;;;;;9.80;3.90;;;7.90;99.90;;;;;;5118661;27;20061;-88
2022/04/06 07:16:16;;;;;;;12.48;3.85;;;7.70;99.90;;;;;;5133549;27;20089;-89
2022/04/06 07:18:42;;;;;;;12.88;4.57;;;7.80;99.90;;;;;;5118058;27;20038;-89
2022/04/06 07:21:08;;;;;;;10.88;4.20;;;7.80;99.90;;;;;;5114481;27;20114;-88
2022/04/06 07:23:34;;;;;;;8.77;3.70;;;7.80;99.90;;;;;;5112314;27;20039;-89
2022/04/06 07:25:59;;;;;;;8.10;3.72;;;7.90;99.90;;;;;;5115465;27;20031;-89
2022/04/06 07:28:25;;;;;;;11.27;3.55;;;8.30;99.90;;;;;;5130218;27;20519;-89
2022/04/06 07:31:02;;;;;;;10.07;4.30;;;8.20;99.90;;;;;;5110962;27;20489;-90
2022/04/06 07:33:27;;;;;;;8.48;4.05;;;8.30;99.90;;;;;;5115255;27;20061;-89
2022/04/06 07:35:53;;;;;;;12.73;4.15;;;7.80;99.90;;;;;;5105813;27;20030;-89
2022/04/06 07:38:18;;;;;;;12.00;4.10;;;7.90;99.90;;;;;;5129968;27;20871;-88
2022/04/06 07:40:44;;;;;;;11.75;4.13;;;7.90;99.90;;;;;;5127394;27;20552;-88
2022/04/06 07:43:11;;;;;;;9.43;3.60;;;7.50;99.90;;;;;;5110323;27;20031;-90
2022/04/06 07:45:37;;;;;;;9.90;3.75;;;7.90;99.90;;;;;;5109130;27;20066;-88
2022/04/06 07:48:04;;;;;;;9.57;4.20;;;7.90;99.90;;;;;;5103506;27;20034;-88
2022/04/06 07:50:30;;;;;;;10.40;4.28;;;7.90;99.90;;;;;;5118604;27;20111;-89
2022/04/06 07:52:55;;;;;;;11.25;3.67;;;7.80;99.90;;;;;;5116085;27;20038;-90
2022/04/06 07:55:21;;;;;;;14.35;4.15;;;8.30;99.90;;;;;;5118282;27;20042;-88
2022/04/06 07:57:47;;;;;;;12.98;4.57;;;7.90;99.90;;;;;;5118578;27;20061;-89
2022/04/06 08:00:16;;;;;;;15.20;4.50;;;7.90;99.90;;;;;;5117987;27;20035;-88
2022/04/06 08:02:45;;;;;;;13.70;4.25;;;7.90;99.90;;;;;;5134349;27;20027;-89
2022/04/06 08:05:10;;;;;;;14.40;4.28;;;7.90;99.90;;;;;;5116996;27;20083;-88
2022/04/06 08:07:39;;;;;;;18.38;4.35;;;8.00;99.90;;;;;;5134881;27;20054;-88
2022/04/06 08:10:09;;;;;;;14.30;4.97;;;8.10;99.90;;;;;;5134416;27;20551;-87
2022/04/06 08:12:36;;;;;;;16.48;4.82;;;8.10;99.90;;;;;;5114449;27;20047;-90
2022/04/06 08:15:03;;;;;;;11.80;4.78;;;8.20;99.90;;;;;;5116101;27;20041;-88
2022/04/06 08:17:32;;;;;;;15.07;4.43;;;8.10;99.90;;;;;;5114733;27;20031;-89
2022/04/06 08:19:58;;;;;;;17.17;4.32;;;8.10;99.90;;;;;;5103636;28;20091;-88
2022/04/06 08:22:23;;;;;;;15.43;5.25;;;8.00;99.90;;;;;;5114061;27;20598;-89
2022/04/06 08:24:49;;;;;;;11.70;4.95;;;8.10;99.90;;;;;;5116433;27;20022;-88
2022/04/06 08:27:24;;;;;;;12.68;4.35;;;8.10;99.90;;;;;;5115698;27;20472;-88
2022/04/06 08:29:51;;;;;;;13.32;4.93;;;8.10;99.90;;;;;;5128009;27;20035;-89
2022/04/06 08:32:19;;;;;;;14.43;4.72;;;8.10;99.90;;;;;;5118100;27;20039;-89
2022/04/06 08:34:45;;;;;;;13.27;4.25;;;8.10;99.90;;;;;;5114516;27;20031;-89
2022/04/06 08:37:38;;;;;;;12.35;3.92;;;8.10;99.90;;;;;;5106934;28;20404;-90
2022/04/06 08:40:12;;;;;;;14.88;4.10;;;8.10;99.90;;;;;;5110484;27;20027;-89
2022/04/06 08:42:41;;;;;;;13.88;4.03;;;8.10;99.90;;;;;;5114462;28;20506;-89
2022/04/06 08:45:08;;;;;;;14.27;4.55;;;8.20;99.90;;;;;;5131260;27;20147;-90
2022/04/06 08:47:34;;;;;;;15.00;4.53;;;8.20;99.90;;;;;;5117481;27;20039;-87
2022/04/06 08:50:04;;;;;;;13.93;4.40;;;8.70;99.90;;;;;;5116431;27;20394;-89
2022/04/06 08:52:32;;;;;;;12.65;3.92;;;8.50;99.90;;;;;;5115167;27;20543;-89
2022/04/06 08:54:58;;;;;;;13.20;4.43;;;8.40;99.90;;;;;;5108746;28;20087;-88
2022/04/06 08:57:24;;;;;;;14.32;3.97;;;8.50;99.90;;;;;;5110405;27;20035;-89
2022/04/06 08:59:49;;;;;;;13.82;3.70;;;9.00;99.90;;;;;;5106859;27;20134;-89
2022/04/06 09:02:21;;;;;;;11.43;3.83;;;8.90;99.90;;;;;;5112181;27;20423;-89
2022/04/06 09:04:52;;;;;;;18.50;4.55;;;8.80;99.90;;;;;;5114827;27;20027;-88
2022/04/06 09:07:23;;;;;;;10.55;3.63;;;8.80;99.90;;;;;;5115768;27;20150;-88
2022/04/06 09:09:50;;;;;;;10.20;4.20;;;8.60;99.90;;;;;;5114506;27;20031;-88
2022/04/06 09:12:19;;;;;;;13.70;3.83;;;8.70;99.90;;;;;;5109192;27;20031;-89
2022/04/06 09:14:45;;;;;;;13.40;4.28;;;8.80;99.90;;;;;;5103319;27;20026;-88
2022/04/06 09:17:10;;;;;;;13.10;3.65;;;8.90;99.90;;;;;;5125923;27;20031;-88
2022/04/06 09:19:37;;;;;;;12.25;3.88;;;8.90;99.90;;;;;;5127835;27;20091;-86
2022/04/06 09:22:07;;;;;;;14.10;3.42;;;8.90;99.90;;;;;;5111051;27;20122;-86
2022/04/06 09:24:32;;;;;;;11.75;4.18;;;9.00;99.90;;;;;;5115238;27;20031;-87
2022/04/06 09:27:03;;;;;;;13.73;3.92;;;9.10;99.90;;;;;;5107185;27;20540;-87
2022/04/06 09:29:30;;;;;;;7.97;3.30;;;9.20;99.90;;;;;;5119661;27;20039;-85
2022/04/06 09:32:08;;;;;;;12.10;4.00;;;9.20;99.90;;;;;;5126369;27;20523;-87
2022/04/06 09:34:35;;;;;;;13.45;4.15;;;9.40;99.90;;;;;;5119539;27;20157;-85
2022/04/06 09:37:23;;;;;;;11.13;4.40;;;9.40;99.90;;;;;;5111497;27;20046;-87
2022/04/06 09:39:49;;;;;;;13.45;3.90;;;9.50;99.90;;;;;;5099833;27;20123;-86
2022/04/06 09:42:23;;;;;;;11.10;3.80;;;9.50;99.90;;;;;;5115963;27;20027;-87
2022/04/06 09:47:41;;;;;;;14.68;4.25;;;9.60;99.90;;;;;;5136549;27;20043;-87
2022/04/06 09:50:11;;;;;;;14.93;4.03;;;9.70;99.90;;;;;;5137169;27;20423;-88
2022/04/06 09:52:37;;;;;;;12.90;4.20;;;9.70;99.90;;;;;;5129490;27;20080;-86
2022/04/06 09:55:08;;;;;;;12.27;4.00;;;9.70;99.90;;;;;;5118142;27;20155;-85
2022/04/06 09:57:52;;;;;;;15.38;5.00;;;9.70;99.90;;;;;;5116809;27;20066;-85
2022/04/06 10:00:26;;;;;;;11.15;4.10;;;9.60;99.90;;;;;;5130592;27;20087;-87
2022/04/06 10:03:06;;;;;;;15.10;4.55;;;9.70;99.90;;;;;;5136996;27;20066;-87
2022/04/06 10:05:33;;;;;;;16.75;5.00;;;9.60;99.90;;;;;;5116253;27;20038;-87
2022/04/06 10:08:06;;;;;;;14.55;4.38;;;9.60;99.90;;;;;;5134704;27;20034;-86
2022/04/06 10:10:33;;;;;;;10.90;3.60;;;9.60;99.90;;;;;;5104626;27;20503;-86
2022/04/06 10:12:59;;;;;;;13.07;4.30;;;9.60;99.90;;;;;;5119345;27;20066;-87
2022/04/06 10:15:25;;;;;;;20.38;5.28;;;9.60;99.90;;;;;;5119036;27;20085;-86
2022/04/06 10:17:51;;;;;;;13.05;4.22;;;9.50;99.90;;;;;;5118247;27;20030;-87
2022/04/06 10:20:36;;;;;;;12.77;4.65;;;9.50;99.90;;;;;;5118949;27;20105;-86
2022/04/06 10:23:05;;;;;;;14.02;4.20;;;9.50;99.90;;;;;;5117976;27;20031;-86
2022/04/06 10:25:48;;;;;;;17.58;4.63;;;9.50;99.90;;;;;;5136278;27;20377;-87
2022/04/06 10:28:16;;;;;;;19.48;5.13;;;9.60;99.90;;;;;;5119343;27;20598;-86
2022/04/06 10:31:01;;;;;;;14.95;5.00;;;9.60;99.90;;;;;;5119491;27;20045;-86
2022/04/06 10:33:27;;;;;;;16.77;4.82;;;9.60;99.90;;;;;;5118960;27;20047;-85
2022/04/06 10:36:20;;;;;;;20.48;5.05;;;9.60;99.90;;;;;;5118951;27;20039;-86
2022/04/06 10:39:04;;;;;;;15.85;5.65;;;9.60;99.90;;;;;;5136282;27;20446;-86
2022/04/06 10:41:31;;;;;;;15.05;4.85;;;9.60;99.90;;;;;;5116225;27;20068;-87
2022/04/06 10:43:57;;;;;;;17.77;4.88;;;9.60;99.90;;;;;;5118950;27;20061;-87
2022/04/06 10:46:40;;;;;;;19.90;4.75;;;9.50;99.90;;;;;;5136202;27;20111;-87
2022/04/06 10:49:15;;;;;;;19.40;5.38;;;9.50;99.90;;;;;;5118898;27;20041;-88
2022/04/06 10:51:43;;;;;;;18.45;5.22;;;9.50;99.90;;;;;;5119197;27;20064;-88
2022/04/06 10:54:14;;;;;;;15.45;5.88;;;9.40;99.90;;;;;;5136130;27;20037;-88
2022/04/06 10:56:49;;;;;;;14.40;4.78;;;9.40;99.90;;;;;;5115792;27;20038;-87
2022/04/06 10:59:28;;;;;;;14.38;5.45;;;9.40;99.90;;;;;;5135534;27;20037;-87
2022/04/06 11:02:17;;;;;;;19.92;5.72;;;9.40;99.90;;;;;;5124524;27;20034;-89
2022/04/06 11:04:42;;;;;;;20.00;5.53;;;9.40;99.90;;;;;;5098282;27;20561;-87
2022/04/06 11:07:09;;;;;;;15.45;5.28;;;9.50;99.90;;;;;;5131103;27;20035;-89
2022/04/06 11:12:30;;;;;;;17.58;5.60;;;9.60;99.90;;;;;;5135911;27;20050;-89
2022/04/06 11:14:58;;;;;;;21.13;6.75;;;9.60;99.90;;;;;;5121977;27;20039;-88
2022/04/06 11:17:32;;;;;;;18.60;5.45;;;9.60;99.90;;;;;;5130961;27;20034;-88
2022/04/06 11:19:58;;;;;;;21.73;5.68;;;9.60;99.90;;;;;;5106720;27;20041;-88
2022/04/06 11:22:24;;;;;;;16.70;5.63;;;9.60;99.90;;;;;;5110199;27;20039;-87
2022/04/06 11:24:50;;;;;;;14.70;5.43;;;9.70;99.90;;;;;;5132958;27;20535;-88
2022/04/06 11:27:32;;;;;;;21.10;6.07;;;9.80;99.90;;;;;;5133363;27;20412;-87
2022/04/06 11:30:07;;;;;;;18.08;5.75;;;9.80;99.90;;;;;;5131152;27;20027;-87
2022/04/06 11:32:33;;;;;;;24.52;6.20;;;10.00;99.90;;;;;;5134613;27;20057;-87
2022/04/06 11:35:05;;;;;;;21.70;5.70;;;10.20;99.90;;;;;;5133924;27;20035;-87
2022/04/06 11:37:32;;;;;;;22.55;6.22;;;10.40;99.90;;;;;;5133645;27;20030;-87
2022/04/06 11:39:59;;;;;;;20.50;6.30;;;10.70;99.90;;;;;;5133820;27;20041;-87
2022/04/06 11:42:25;;;;;;;19.58;5.65;;;10.90;99.90;;;;;;5113673;27;20038;-87
2022/04/06 11:44:54;;;;;;;19.05;6.22;;;11.10;99.90;;;;;;5112527;27;20051;-86
2022/04/06 11:47:31;;;;;;;17.52;5.22;;;11.30;99.90;;;;;;5126680;27;20030;-87
2022/04/06 11:49:57;;;;;;;12.35;4.30;;;11.40;99.90;;;;;;5131311;27;20039;-85
2022/04/06 11:52:23;;;;;;;15.10;4.55;;;11.40;99.90;;;;;;5110809;27;20119;-86
2022/04/06 11:54:53;;;;;;;11.90;4.78;;;11.50;99.90;;;;;;5117547;27;20035;-87
2022/04/06 11:57:31;;;;;;;13.10;3.75;;;11.90;99.90;;;;;;5127332;27;20077;-88
2022/04/06 11:59:56;;;;;;;14.15;4.25;;;12.00;99.90;;;;;;5097617;27;20411;-87
2022/04/06 12:02:22;;;;;;;12.20;3.70;;;12.10;99.90;;;;;;5095822;27;20047;-87
2022/04/06 12:05:04;;;;;;;14.32;4.03;;;12.50;99.90;;;;;;5114214;28;20039;-87
2022/04/06 12:07:30;;;;;;;13.82;4.35;;;12.10;99.90;;;;;;5114098;27;20031;-86
2022/04/06 12:09:56;;;;;;;13.70;3.78;;;12.10;99.90;;;;;;5097094;28;20511;-87
2022/04/06 12:12:23;;;;;;;12.90;4.00;;;12.20;99.90;;;;;;5114189;28;20027;-86
2022/04/06 12:14:52;;;;;;;12.75;3.45;;;12.10;99.90;;;;;;5096286;28;20035;-87
2022/04/06 12:17:20;;;;;;;14.35;3.45;;;12.10;99.90;;;;;;5114032;28;20409;-87
2022/04/06 12:19:45;;;;;;;16.13;4.38;;;12.00;99.90;;;;;;5125019;27;20084;-87
2022/04/06 12:22:11;;;;;;;9.73;3.38;;;11.90;99.90;;;;;;5117572;27;20039;-87
2022/04/06 12:24:46;;;;;;;14.68;3.60;;;11.80;99.90;;;;;;5134528;27;20152;-87
2022/04/06 12:27:27;;;;;;;13.32;3.70;;;11.70;99.90;;;;;;5117735;27;20441;-86
2022/04/06 12:30:10;;;;;;;12.23;3.08;;;11.70;99.90;;;;;;5134707;27;20042;-84
2022/04/06 12:32:44;;;;;;;12.02;3.30;;;11.60;99.90;;;;;;5115896;27;20118;-84
2022/04/06 12:35:17;;;;;;;15.10;3.40;;;11.70;99.90;;;;;;5133249;27;20063;-85
2022/04/06 12:37:43;;;;;;;11.93;3.40;;;11.60;99.90;;;;;;5117399;27;20392;-84
2022/04/06 12:40:08;;;;;;;12.75;3.42;;;11.60;99.90;;;;;;5117300;27;20026;-85
2022/04/06 12:42:37;;;;;;;8.77;2.80;;;11.50;99.90;;;;;;5117475;27;20041;-85
2022/04/06 12:45:06;;;;;;;11.02;3.53;;;11.50;99.90;;;;;;5134391;27;20088;-84
2022/04/06 12:47:31;;;;;;;16.48;3.13;;;11.60;99.90;;;;;;5117091;27;20041;-84
2022/04/06 12:50:15;;;;;;;13.45;3.38;;;11.90;99.90;;;;;;5119257;27;20117;-85
2022/04/06 12:52:41;;;;;;;15.27;3.28;;;12.00;99.90;;;;;;5110769;27;20052;-84
2022/04/06 12:55:18;;;;;;;12.50;3.58;;;12.10;99.90;;;;;;5128758;27;20034;-86
2022/04/06 12:57:44;;;;;;;10.82;2.97;;;12.20;99.90;;;;;;5120952;27;20027;-85